createdAt,value
2019-03-23T00:01:36.242Z,8.50
2019-03-23T00:04:08.096Z,8.50
2019-03-23T00:06:38.876Z,8.50
2019-03-23T00:09:09.728Z,8.50
2019-03-23T00:11:40.677Z,8.60
2019-03-23T00:14:11.529Z,8.60
2019-03-23T00:16:42.469Z,8.50
2019-03-23T00:19:13.174Z,8.50
2019-03-23T00:21:43.914Z,8.60
2019-03-23T00:24:14.720Z,8.60
2019-03-23T00:26:45.457Z,8.50
2019-03-23T00:29:16.456Z,8.50
2019-03-23T00:31:47.200Z,8.40
2019-03-23T00:34:17.908Z,8.40
2019-03-23T00:36:48.814Z,8.30
2019-03-23T00:39:19.607Z,8.30
2019-03-23T00:41:50.373Z,8.10
2019-03-23T00:44:21.087Z,8.00
2019-03-23T00:46:52.532Z,7.80
2019-03-23T00:49:23.310Z,7.70
2019-03-23T00:51:54.013Z,7.50
2019-03-23T00:54:25.647Z,7.40
2019-03-23T00:56:56.329Z,7.40
2019-03-23T00:59:27.184Z,7.40
2019-03-23T01:04:22.650Z,7.80
2019-03-23T01:06:53.423Z,7.90
2019-03-23T01:09:24.200Z,7.70
2019-03-23T01:11:56.626Z,7.70
2019-03-23T01:14:27.434Z,7.60
2019-03-23T01:16:58.202Z,7.60
2019-03-23T01:19:28.971Z,7.70
2019-03-23T01:21:59.667Z,7.80
2019-03-23T01:24:30.458Z,7.80
2019-03-23T01:27:01.228Z,7.70
2019-03-23T01:29:34.094Z,7.60
2019-03-23T01:32:04.842Z,7.60
2019-03-23T01:34:35.623Z,7.60
2019-03-23T01:37:06.477Z,7.60
2019-03-23T01:39:37.208Z,7.60
2019-03-23T01:42:08.067Z,7.70
2019-03-23T01:44:38.768Z,7.60
2019-03-23T01:47:09.444Z,7.30
2019-03-23T01:49:40.145Z,6.90
2019-03-23T01:52:10.815Z,6.70
2019-03-23T01:54:42.006Z,6.50
2019-03-23T01:57:12.819Z,6.40
2019-03-23T01:59:43.517Z,6.20
2019-03-23T02:02:14.280Z,6.10
2019-03-23T02:04:45.076Z,6.10
2019-03-23T02:07:15.881Z,6.30
2019-03-23T02:09:46.681Z,6.20
2019-03-23T02:12:18.660Z,6.30
2019-03-23T02:14:49.369Z,6.20
2019-03-23T02:17:20.553Z,6.20
2019-03-23T02:19:51.271Z,6.00
2019-03-23T02:22:21.950Z,6.00
2019-03-23T02:24:52.687Z,6.10
2019-03-23T02:27:23.385Z,6.20
2019-03-23T02:29:54.299Z,6.30
2019-03-23T02:32:25.069Z,6.30
2019-03-23T02:34:56.974Z,6.40
2019-03-23T02:37:28.905Z,6.40
2019-03-23T02:39:59.589Z,6.50
2019-03-23T02:42:30.348Z,6.50
2019-03-23T02:45:01.059Z,6.60
2019-03-23T02:47:31.748Z,6.60
2019-03-23T02:50:02.484Z,6.70
2019-03-23T02:52:33.424Z,6.80
2019-03-23T02:55:04.746Z,6.80
2019-03-23T02:57:35.497Z,6.90
2019-03-23T03:00:08.791Z,6.80
2019-03-23T03:02:39.681Z,7.00
2019-03-23T03:05:11.250Z,7.20
2019-03-23T03:07:43.802Z,7.20
2019-03-23T03:10:35.651Z,7.10
2019-03-23T03:13:06.569Z,7.10
2019-03-23T03:15:37.491Z,7.00
2019-03-23T03:18:09.294Z,7.00
2019-03-23T03:20:41.937Z,6.90
2019-03-23T03:23:12.724Z,7.00
2019-03-23T03:25:43.537Z,6.90
2019-03-23T03:28:14.235Z,6.90
2019-03-23T03:30:44.933Z,6.70
2019-03-23T03:33:15.816Z,6.60
2019-03-23T03:35:46.655Z,6.70
2019-03-23T03:38:17.416Z,6.70
2019-03-23T03:40:48.095Z,6.80
2019-03-23T03:43:18.795Z,6.60
2019-03-23T03:45:49.505Z,6.70
2019-03-23T03:48:20.204Z,6.60
2019-03-23T03:50:51.081Z,6.60
2019-03-23T03:53:21.775Z,6.70
2019-03-23T03:55:52.500Z,6.70
2019-03-23T03:58:23.260Z,6.60
2019-03-23T04:00:53.960Z,6.70
2019-03-23T04:03:24.632Z,6.60
2019-03-23T04:05:55.439Z,6.70
2019-03-23T04:08:26.162Z,6.70
2019-03-23T04:10:57.962Z,6.70
2019-03-23T04:13:28.650Z,6.60
2019-03-23T04:15:59.517Z,6.70
2019-03-23T04:18:30.237Z,6.70
2019-03-23T04:21:01.882Z,6.60
2019-03-23T04:23:32.632Z,6.60
2019-03-23T04:26:03.320Z,6.60
2019-03-23T04:28:34.093Z,6.70
2019-03-23T04:31:04.942Z,6.80
2019-03-23T04:33:35.646Z,6.70
2019-03-23T04:36:06.526Z,6.70
2019-03-23T04:38:37.863Z,6.80
2019-03-23T04:41:08.637Z,6.70
2019-03-23T04:43:39.360Z,6.70
2019-03-23T04:46:10.155Z,6.70
2019-03-23T04:48:40.958Z,6.70
2019-03-23T04:51:11.737Z,6.60
2019-03-23T04:53:42.475Z,6.60
2019-03-23T04:56:13.183Z,6.70
2019-03-23T04:58:43.945Z,6.70
2019-03-23T05:01:14.820Z,6.60
2019-03-23T05:03:46.551Z,6.50
2019-03-23T05:06:17.242Z,6.50
2019-03-23T05:08:47.922Z,6.50
2019-03-23T05:11:19.094Z,6.40
2019-03-23T05:13:49.879Z,6.40
2019-03-23T05:16:20.575Z,6.30
2019-03-23T05:18:51.335Z,6.30
2019-03-23T05:21:22.131Z,6.30
2019-03-23T05:23:52.893Z,6.30
2019-03-23T05:26:23.575Z,6.40
2019-03-23T05:28:54.384Z,6.50
2019-03-23T05:31:25.162Z,6.50
2019-03-23T05:33:55.859Z,6.40
2019-03-23T05:36:26.570Z,6.50
2019-03-23T05:38:57.336Z,6.50
2019-03-23T05:41:30.945Z,6.50
2019-03-23T05:44:01.684Z,6.60
2019-03-23T05:46:32.489Z,6.50
2019-03-23T05:49:03.172Z,6.40
2019-03-23T05:51:34.395Z,6.60
2019-03-23T05:54:05.856Z,6.60
2019-03-23T05:56:36.854Z,6.80
2019-03-23T05:59:07.834Z,6.80
2019-03-23T06:01:38.814Z,6.70
2019-03-23T06:04:09.504Z,6.70
2019-03-23T06:06:40.292Z,6.80
2019-03-23T06:09:11.083Z,6.90
2019-03-23T06:11:43.034Z,6.80
2019-03-23T06:14:13.842Z,6.80
2019-03-23T06:16:44.604Z,6.90
2019-03-23T06:19:15.359Z,6.90
2019-03-23T06:21:46.156Z,7.00
2019-03-23T06:24:17.312Z,7.40
2019-03-23T06:26:48.610Z,7.20
2019-03-23T06:29:20.016Z,7.20
2019-03-23T06:31:51.021Z,7.10
2019-03-23T06:34:22.061Z,7.30
2019-03-23T06:36:53.082Z,7.30
2019-03-23T06:39:23.856Z,7.50
2019-03-23T06:41:54.580Z,7.70
2019-03-23T06:44:25.273Z,7.80
2019-03-23T06:46:56.199Z,7.90
2019-03-23T06:49:26.911Z,8.10
2019-03-23T06:51:57.726Z,8.10
2019-03-23T06:54:29.625Z,8.10
2019-03-23T06:57:00.463Z,8.30
2019-03-23T06:59:31.135Z,8.30
2019-03-23T07:02:02.042Z,8.30
2019-03-23T07:04:33.060Z,8.50
2019-03-23T07:07:06.918Z,8.80
2019-03-23T07:09:37.751Z,9.00
2019-03-23T07:12:09.465Z,9.10
2019-03-23T07:14:40.495Z,9.20
2019-03-23T07:17:11.282Z,9.20
2019-03-23T07:19:42.100Z,9.40
2019-03-23T07:22:12.829Z,9.60
2019-03-23T07:24:43.519Z,9.90
2019-03-23T07:27:14.367Z,10.20
2019-03-23T07:29:45.291Z,10.40
2019-03-23T07:32:16.239Z,10.40
2019-03-23T07:34:47.401Z,10.50
2019-03-23T07:37:19.402Z,10.80
2019-03-23T07:39:50.124Z,10.70
2019-03-23T07:42:23.885Z,10.80
2019-03-23T07:44:54.612Z,11.00
2019-03-23T07:47:25.409Z,11.20
2019-03-23T07:49:56.112Z,11.50
2019-03-23T07:52:26.887Z,11.30
2019-03-23T07:55:02.087Z,11.60
2019-03-23T07:57:33.351Z,11.60
2019-03-23T08:00:05.259Z,11.80
2019-03-23T08:02:36.251Z,12.00
2019-03-23T08:05:08.732Z,12.10
2019-03-23T08:07:39.574Z,12.50
2019-03-23T08:10:10.850Z,12.50
2019-03-23T08:12:41.638Z,12.70
2019-03-23T08:15:12.566Z,12.80
2019-03-23T08:17:43.273Z,12.90
2019-03-23T08:20:15.208Z,13.20
2019-03-23T08:22:46.090Z,13.00
2019-03-23T08:25:17.018Z,13.20
2019-03-23T08:27:47.875Z,13.40
2019-03-23T08:30:18.742Z,13.60
2019-03-23T08:32:49.504Z,13.80
2019-03-23T08:35:20.404Z,13.70
2019-03-23T08:37:51.106Z,13.70
2019-03-23T08:40:22.158Z,13.70
2019-03-23T08:42:52.835Z,13.70
2019-03-23T08:45:23.601Z,13.70
2019-03-23T08:47:54.362Z,13.90
2019-03-23T08:50:25.196Z,14.10
2019-03-23T08:52:56.046Z,14.00
2019-03-23T08:55:26.762Z,14.30
2019-03-23T08:57:57.533Z,14.30
2019-03-23T09:00:28.330Z,14.20
2019-03-23T09:02:59.773Z,14.20
2019-03-23T09:05:31.773Z,14.20
2019-03-23T09:08:02.690Z,14.50
2019-03-23T09:10:33.467Z,14.60
2019-03-23T09:13:04.238Z,14.80
2019-03-23T09:15:35.032Z,14.80
2019-03-23T09:18:05.974Z,15.00
2019-03-23T09:20:37.125Z,15.10
2019-03-23T09:23:07.996Z,14.90
2019-03-23T09:25:38.989Z,15.30
2019-03-23T09:28:10.181Z,15.60
2019-03-23T09:30:40.976Z,15.80
2019-03-23T09:33:11.834Z,15.60
2019-03-23T09:35:42.666Z,16.00
2019-03-23T09:38:13.442Z,15.80
2019-03-23T09:40:44.220Z,15.80
2019-03-23T09:43:14.917Z,15.50
2019-03-23T09:45:45.611Z,15.90
2019-03-23T09:48:16.467Z,16.00
2019-03-23T09:50:47.296Z,15.90
2019-03-23T09:53:17.977Z,15.80
2019-03-23T09:55:48.815Z,16.00
2019-03-23T09:58:19.777Z,16.20
2019-03-23T10:00:50.582Z,16.40
2019-03-23T10:03:21.361Z,16.80
2019-03-23T10:05:52.329Z,16.40
2019-03-23T10:08:23.040Z,16.10
2019-03-23T10:10:55.021Z,15.90
2019-03-23T10:13:25.840Z,16.00
2019-03-23T10:15:56.585Z,16.40
2019-03-23T10:18:27.356Z,16.50
2019-03-23T10:20:58.290Z,16.80
2019-03-23T10:23:29.007Z,17.00
2019-03-23T10:25:59.873Z,17.00
2019-03-23T10:28:30.658Z,16.70
2019-03-23T10:31:02.515Z,16.70
2019-03-23T10:33:33.213Z,16.90
2019-03-23T10:36:04.904Z,16.90
2019-03-23T10:38:35.686Z,16.90
2019-03-23T10:41:06.667Z,16.80
2019-03-23T10:43:39.048Z,17.20
2019-03-23T10:46:12.266Z,17.40
2019-03-23T10:48:43.142Z,17.70
2019-03-23T10:51:13.940Z,17.60
2019-03-23T10:53:46.057Z,17.90
2019-03-23T10:56:16.915Z,18.30
2019-03-23T10:58:47.684Z,18.60
2019-03-23T11:01:18.643Z,18.60
2019-03-23T11:03:49.499Z,18.40
2019-03-23T11:06:20.286Z,18.50
2019-03-23T11:08:51.068Z,19.00
2019-03-23T11:11:23.565Z,19.30
2019-03-23T11:13:54.335Z,20.10
2019-03-23T11:16:25.137Z,20.50
2019-03-23T11:18:56.017Z,21.80
2019-03-23T11:21:26.915Z,22.40
2019-03-23T11:23:57.702Z,22.50
2019-03-23T11:26:28.499Z,21.90
2019-03-23T11:28:59.214Z,22.10
2019-03-23T11:31:31.025Z,22.40
2019-03-23T11:34:01.812Z,22.00
2019-03-23T11:36:34.679Z,20.00
2019-03-23T11:39:07.585Z,21.60
2019-03-23T11:41:38.502Z,22.10
2019-03-23T11:44:09.361Z,22.90
2019-03-23T11:46:40.209Z,22.50
2019-03-23T11:49:10.995Z,23.20
2019-03-23T11:51:41.804Z,24.20
2019-03-23T11:54:13.592Z,24.40
2019-03-23T11:56:44.787Z,24.30
2019-03-23T11:59:15.659Z,24.40
2019-03-23T12:01:51.702Z,24.40
2019-03-23T12:04:19.631Z,24.00
2019-03-23T12:06:50.523Z,24.90
2019-03-23T12:09:21.255Z,25.80
2019-03-23T12:11:52.027Z,25.30
2019-03-23T12:14:22.815Z,25.40
2019-03-23T12:16:53.633Z,25.50
2019-03-23T12:19:24.406Z,25.90
2019-03-23T12:21:55.154Z,24.80
2019-03-23T12:24:25.866Z,25.50
2019-03-23T12:26:56.572Z,23.80
2019-03-23T12:29:27.341Z,23.30
2019-03-23T12:31:58.127Z,23.40
2019-03-23T12:34:28.826Z,24.50
2019-03-23T12:36:59.610Z,24.50
2019-03-23T12:39:30.498Z,25.50
2019-03-23T12:42:01.599Z,25.60
2019-03-23T12:44:32.445Z,26.00
2019-03-23T12:47:03.338Z,27.10
2019-03-23T12:49:35.000Z,25.70
2019-03-23T12:52:05.932Z,23.60
2019-03-23T12:54:36.866Z,24.90
2019-03-23T12:57:07.585Z,25.90
2019-03-23T12:59:38.338Z,26.30
2019-03-23T13:02:09.060Z,26.50
2019-03-23T13:04:39.841Z,26.70
2019-03-23T13:07:10.629Z,25.20
2019-03-23T13:09:42.063Z,24.40
2019-03-23T13:12:12.931Z,24.70
2019-03-23T13:14:43.781Z,24.10
2019-03-23T13:17:14.558Z,23.90
2019-03-23T13:19:45.351Z,23.50
2019-03-23T13:22:16.061Z,23.50
2019-03-23T13:24:46.915Z,23.70
2019-03-23T13:27:17.772Z,24.30
2019-03-23T13:29:48.572Z,24.20
2019-03-23T13:32:19.452Z,23.40
2019-03-23T13:34:50.705Z,22.20
2019-03-23T13:37:21.703Z,22.30
2019-03-23T13:39:52.460Z,23.00
2019-03-23T13:42:23.235Z,23.50
2019-03-23T13:44:54.117Z,24.70
2019-03-23T13:47:24.917Z,25.20
2019-03-23T13:49:55.616Z,24.90
2019-03-23T13:52:30.453Z,25.00
2019-03-23T13:55:01.259Z,23.40
2019-03-23T13:57:32.109Z,23.10
2019-03-23T14:00:03.943Z,23.30
2019-03-23T14:02:34.734Z,22.90
2019-03-23T14:05:15.684Z,22.80
2019-03-23T14:07:40.363Z,23.30
2019-03-23T14:10:12.845Z,24.40
2019-03-23T14:12:43.632Z,25.00
2019-03-23T14:15:14.676Z,24.60
2019-03-23T14:17:45.461Z,24.20
2019-03-23T14:20:16.389Z,23.70
2019-03-23T14:22:47.232Z,23.10
2019-03-23T14:25:18.102Z,23.50
2019-03-23T14:27:48.878Z,23.40
2019-03-23T14:30:19.841Z,23.70
2019-03-23T14:32:50.757Z,24.60
2019-03-23T14:35:21.616Z,24.60
2019-03-23T14:37:52.337Z,24.50
2019-03-23T14:40:23.225Z,23.30
2019-03-23T14:42:54.886Z,22.80
2019-03-23T14:45:25.782Z,22.20
2019-03-23T14:47:56.579Z,22.10
2019-03-23T14:50:27.670Z,22.00
2019-03-23T14:52:58.402Z,21.90
2019-03-23T14:55:29.097Z,22.30
2019-03-23T14:57:59.920Z,21.80
2019-03-23T15:00:35.263Z,22.00
2019-03-23T15:03:06.136Z,21.50
2019-03-23T15:05:37.842Z,21.20
2019-03-23T15:08:08.630Z,21.70
2019-03-23T15:10:39.489Z,22.20
2019-03-23T15:13:10.501Z,22.50
2019-03-23T15:15:41.303Z,22.40
2019-03-23T15:18:12.029Z,22.60
2019-03-23T15:20:42.794Z,23.50
2019-03-23T15:23:13.638Z,24.00
2019-03-23T15:25:46.206Z,23.20
2019-03-23T15:28:17.046Z,22.60
2019-03-23T15:30:47.934Z,22.80
2019-03-23T15:33:18.991Z,22.30
2019-03-23T15:35:49.887Z,22.10
2019-03-23T15:38:20.820Z,22.10
2019-03-23T15:40:51.595Z,22.10
2019-03-23T15:43:22.301Z,21.10
2019-03-23T15:45:53.138Z,20.60
2019-03-23T15:48:23.935Z,20.20
2019-03-23T15:50:55.127Z,20.10
2019-03-23T15:53:25.907Z,20.00
2019-03-23T15:55:56.601Z,20.30
2019-03-23T15:58:28.269Z,20.50
2019-03-23T16:00:59.043Z,20.60
2019-03-23T16:03:29.788Z,20.30
2019-03-23T16:06:00.565Z,20.20
2019-03-23T16:08:31.255Z,19.80
2019-03-23T16:11:02.067Z,19.30
2019-03-23T16:13:32.836Z,19.40
2019-03-23T16:16:04.576Z,19.20
2019-03-23T16:18:35.430Z,19.20
2019-03-23T16:21:06.553Z,19.00
2019-03-23T16:23:37.321Z,18.70
2019-03-23T16:26:09.313Z,18.40
2019-03-23T16:28:40.020Z,18.50
2019-03-23T16:31:10.789Z,18.20
2019-03-23T16:33:41.553Z,18.30
2019-03-23T16:36:12.400Z,18.20
2019-03-23T16:38:43.129Z,18.30
2019-03-23T16:41:14.518Z,18.10
2019-03-23T16:43:45.292Z,18.10
2019-03-23T16:46:15.998Z,17.90
2019-03-23T16:48:46.787Z,17.80
2019-03-23T16:51:17.561Z,17.80
2019-03-23T16:53:48.339Z,17.60
2019-03-23T16:56:19.049Z,17.40
2019-03-23T16:58:49.881Z,17.40
2019-03-23T17:01:20.789Z,17.30
2019-03-23T17:03:51.603Z,17.20
2019-03-23T17:06:22.466Z,17.00
2019-03-23T17:08:53.234Z,16.80
2019-03-23T17:11:23.938Z,16.70
2019-03-23T17:13:54.624Z,16.70
2019-03-23T17:16:25.570Z,16.70
2019-03-23T17:18:56.349Z,16.50
2019-03-23T17:21:27.146Z,16.50
2019-03-23T17:23:58.036Z,16.30
2019-03-23T17:26:28.848Z,16.30
2019-03-23T17:28:59.637Z,16.10
2019-03-23T17:31:30.520Z,15.90
2019-03-23T17:34:01.344Z,15.80
2019-03-23T17:36:32.086Z,15.80
2019-03-23T17:39:03.372Z,15.80
2019-03-23T17:41:34.818Z,15.60
2019-03-23T17:44:05.971Z,15.50
2019-03-23T17:46:36.990Z,15.40
2019-03-23T17:49:08.903Z,15.40
2019-03-23T17:51:40.695Z,15.30
2019-03-23T17:54:11.484Z,15.20
2019-03-23T17:56:42.253Z,15.40
2019-03-23T17:59:13.112Z,15.30
2019-03-23T18:01:43.933Z,15.00
2019-03-23T18:04:15.009Z,14.90
2019-03-23T18:06:46.979Z,14.70
2019-03-23T18:09:18.031Z,14.60
2019-03-23T18:11:48.885Z,14.50
2019-03-23T18:14:20.121Z,14.50
2019-03-23T18:16:50.954Z,14.50
2019-03-23T18:19:21.875Z,14.60
2019-03-23T18:21:52.630Z,14.40
2019-03-23T18:24:23.511Z,14.30
2019-03-23T18:26:54.403Z,14.10
2019-03-23T18:29:25.393Z,14.10
2019-03-23T18:31:57.730Z,13.90
2019-03-23T18:34:28.773Z,13.80
2019-03-23T18:37:00.496Z,13.80
2019-03-23T18:39:31.314Z,13.90
2019-03-23T18:42:02.093Z,13.80
2019-03-23T18:44:33.135Z,13.60
2019-03-23T18:47:03.958Z,13.60
2019-03-23T18:49:35.664Z,14.00
2019-03-23T18:52:07.728Z,14.40
2019-03-23T18:54:38.552Z,14.60
2019-03-23T18:57:09.400Z,14.90
2019-03-23T18:59:40.193Z,15.00
2019-03-23T19:02:11.648Z,15.10
2019-03-23T19:04:42.457Z,15.30
2019-03-23T19:07:13.274Z,15.40
2019-03-23T19:09:44.005Z,15.50
2019-03-23T19:12:15.033Z,15.50
2019-03-23T19:14:45.908Z,15.50
2019-03-23T19:17:16.842Z,15.20
2019-03-23T19:19:48.582Z,15.00
2019-03-23T19:22:19.611Z,14.70
2019-03-23T19:24:50.568Z,14.30
2019-03-23T19:27:21.546Z,13.90
2019-03-23T19:29:52.485Z,13.60
2019-03-23T19:32:23.449Z,13.40
2019-03-23T19:34:54.185Z,13.30
2019-03-23T19:37:24.906Z,13.10
2019-03-23T19:39:55.689Z,12.90
2019-03-23T19:42:26.506Z,12.70
2019-03-23T19:44:57.427Z,12.50
2019-03-23T19:47:28.263Z,12.50
2019-03-23T19:49:59.125Z,12.50
2019-03-23T19:52:29.888Z,12.50
2019-03-23T19:55:00.633Z,12.60
2019-03-23T19:57:32.440Z,12.60
2019-03-23T20:00:03.382Z,12.60
2019-03-23T20:02:34.235Z,12.60
2019-03-23T20:05:06.321Z,12.60
2019-03-23T20:07:37.177Z,12.70
2019-03-23T20:10:08.783Z,12.80
2019-03-23T20:12:39.799Z,12.70
2019-03-23T20:15:12.276Z,12.70
2019-03-23T20:17:43.112Z,12.80
2019-03-23T20:20:14.610Z,13.20
2019-03-23T20:22:45.503Z,13.20
2019-03-23T20:25:16.488Z,12.80
2019-03-23T20:27:47.287Z,12.80
2019-03-23T20:30:19.415Z,12.70
2019-03-23T20:32:50.305Z,12.80
2019-03-23T20:35:21.029Z,12.80
2019-03-23T20:37:51.817Z,12.80
2019-03-23T20:40:22.686Z,12.80
2019-03-23T20:42:53.509Z,12.70
2019-03-23T20:45:33.508Z,12.60
2019-03-23T20:48:04.755Z,12.60
2019-03-23T20:50:36.447Z,12.60
2019-03-23T20:53:07.887Z,12.60
2019-03-23T20:55:38.769Z,12.50
2019-03-23T20:58:10.669Z,12.50
2019-03-23T21:00:41.644Z,12.50
2019-03-23T21:03:13.671Z,12.40
2019-03-23T21:05:44.463Z,12.40
2019-03-23T21:08:15.231Z,12.40
2019-03-23T21:10:46.194Z,12.40
2019-03-23T21:13:16.940Z,12.40
2019-03-23T21:15:48.791Z,12.30
2019-03-23T21:18:19.520Z,12.30
2019-03-23T21:20:50.411Z,12.30
2019-03-23T21:23:21.287Z,12.30
2019-03-23T21:25:52.129Z,12.30
2019-03-23T21:28:22.931Z,12.20
2019-03-23T21:30:53.998Z,12.20
2019-03-23T21:33:31.799Z,12.10
2019-03-23T21:35:57.574Z,12.00
2019-03-23T21:38:28.410Z,12.00
2019-03-23T21:40:59.701Z,12.00
2019-03-23T21:43:30.721Z,11.90
2019-03-23T21:46:01.554Z,11.90
2019-03-23T21:48:32.382Z,11.80
2019-03-23T21:51:03.223Z,11.50
2019-03-23T21:53:33.949Z,11.30
2019-03-23T21:56:05.388Z,11.00
2019-03-23T21:58:37.813Z,10.80
2019-03-23T22:01:08.646Z,10.80
2019-03-23T22:03:39.468Z,10.70
2019-03-23T22:06:10.202Z,10.80
2019-03-23T22:08:41.154Z,11.10
2019-03-23T22:11:11.991Z,11.30
2019-03-23T22:13:42.792Z,11.30
2019-03-23T22:16:14.880Z,11.40
2019-03-23T22:18:45.708Z,11.40
2019-03-23T22:21:16.519Z,11.30
2019-03-23T22:23:47.369Z,11.40
2019-03-23T22:26:18.189Z,11.40
2019-03-23T22:28:48.925Z,11.70
2019-03-23T22:31:19.623Z,11.60
2019-03-23T22:33:50.411Z,11.30
2019-03-23T22:36:21.186Z,11.20
2019-03-23T22:38:52.028Z,11.00
2019-03-23T22:41:22.904Z,10.90
2019-03-23T22:43:53.715Z,10.90
2019-03-23T22:46:24.482Z,10.70
2019-03-23T22:48:55.415Z,10.60
2019-03-23T22:51:26.232Z,10.30
2019-03-23T22:53:57.013Z,9.90
2019-03-23T22:56:27.875Z,9.80
2019-03-23T22:59:00.687Z,9.80
2019-03-23T23:01:31.565Z,9.60
2019-03-23T23:04:02.453Z,9.60
2019-03-23T23:06:33.278Z,9.50
2019-03-23T23:09:05.729Z,9.70
2019-03-23T23:11:36.653Z,9.80
2019-03-23T23:14:07.674Z,9.90
2019-03-23T23:16:39.571Z,10.10
2019-03-23T23:19:10.611Z,10.20
2019-03-23T23:21:41.325Z,10.40
2019-03-23T23:24:12.238Z,10.40
2019-03-23T23:26:43.103Z,10.40
2019-03-23T23:29:13.925Z,10.40
2019-03-23T23:31:46.007Z,10.50
2019-03-23T23:34:16.734Z,10.40
2019-03-23T23:36:47.623Z,10.80
2019-03-23T23:39:18.484Z,10.80
2019-03-23T23:41:49.382Z,10.70
2019-03-23T23:44:20.280Z,10.50
2019-03-23T23:46:51.113Z,10.40
2019-03-23T23:49:22.697Z,10.30
2019-03-23T23:51:53.601Z,10.20
2019-03-23T23:54:24.584Z,10.20
2019-03-23T23:56:55.481Z,10.20
2019-03-23T23:59:27.797Z,10.20
